sensor_id;sensor_type;location;lat;lon;timestamp;pressure;altitude;pressure_sealevel;temperature;humidity
80294;BME280;69594;43.516;1.498;2023-05-07T00:00:06;99898.53;;;17.74;74.85
80294;BME280;69594;43.516;1.498;2023-05-07T00:02:35;99902.97;;;17.67;75.06
80294;BME280;69594;43.516;1.498;2023-05-07T00:05:01;99894.03;;;17.74;74.44
80294;BME280;69594;43.516;1.498;2023-05-07T00:07:27;99897.72;;;17.73;74.34
80294;BME280;69594;43.516;1.498;2023-05-07T00:09:53;99911.16;;;17.65;75.06
80294;BME280;69594;43.516;1.498;2023-05-07T00:12:18;99891.75;;;17.65;74.52
80294;BME280;69594;43.516;1.498;2023-05-07T00:14:43;99903.84;;;17.74;74.22
80294;BME280;69594;43.516;1.498;2023-05-07T00:17:09;99908.53;;;17.72;74.76
80294;BME280;69594;43.516;1.498;2023-05-07T00:19:34;99895.47;;;17.70;74.58
80294;BME280;69594;43.516;1.498;2023-05-07T00:22:00;99902.19;;;17.73;74.53
80294;BME280;69594;43.516;1.498;2023-05-07T00:24:25;99908.09;;;17.68;74.68
80294;BME280;69594;43.516;1.498;2023-05-07T00:26:50;99899.81;;;17.57;74.79
80294;BME280;69594;43.516;1.498;2023-05-07T00:29:16;99903.78;;;17.61;75.03
80294;BME280;69594;43.516;1.498;2023-05-07T00:31:41;99907.03;;;17.63;74.51
80294;BME280;69594;43.516;1.498;2023-05-07T00:34:07;99901.34;;;17.66;74.61
80294;BME280;69594;43.516;1.498;2023-05-07T00:36:32;99904.44;;;17.69;74.47
80294;BME280;69594;43.516;1.498;2023-05-07T00:38:59;99908.91;;;17.69;74.47
80294;BME280;69594;43.516;1.498;2023-05-07T00:41:25;99917.28;;;17.72;74.48
80294;BME280;69594;43.516;1.498;2023-05-07T00:43:51;99913.44;;;17.75;74.58
80294;BME280;69594;43.516;1.498;2023-05-07T00:46:17;99895.69;;;17.75;74.37
80294;BME280;69594;43.516;1.498;2023-05-07T00:48:44;99906.34;;;17.82;74.08
80294;BME280;69594;43.516;1.498;2023-05-07T00:51:10;99910.25;;;17.86;74.20
80294;BME280;69594;43.516;1.498;2023-05-07T00:53:36;99895.31;;;17.85;73.98
80294;BME280;69594;43.516;1.498;2023-05-07T00:56:02;99904.72;;;17.88;74.35
80294;BME280;69594;43.516;1.498;2023-05-07T00:58:28;99903.47;;;17.77;74.40
80294;BME280;69594;43.516;1.498;2023-05-07T01:00:53;99899.75;;;17.71;74.54
80294;BME280;69594;43.516;1.498;2023-05-07T01:03:19;99904.19;;;17.64;74.75
80294;BME280;69594;43.516;1.498;2023-05-07T01:05:45;99901.22;;;17.53;75.34
80294;BME280;69594;43.516;1.498;2023-05-07T01:08:13;99910.41;;;17.50;75.54
80294;BME280;69594;43.516;1.498;2023-05-07T01:10:41;99903.66;;;17.48;75.16
80294;BME280;69594;43.516;1.498;2023-05-07T01:13:09;99904.81;;;17.38;75.93
80294;BME280;69594;43.516;1.498;2023-05-07T01:15:35;99913.41;;;17.40;75.48
80294;BME280;69594;43.516;1.498;2023-05-07T01:18:01;99904.72;;;17.25;76.09
80294;BME280;69594;43.516;1.498;2023-05-07T01:20:28;99916.59;;;17.29;75.61
80294;BME280;69594;43.516;1.498;2023-05-07T01:22:54;99910.88;;;17.32;75.77
80294;BME280;69594;43.516;1.498;2023-05-07T01:25:20;99899.16;;;17.20;76.02
80294;BME280;69594;43.516;1.498;2023-05-07T01:27:45;99917.84;;;17.33;75.95
80294;BME280;69594;43.516;1.498;2023-05-07T01:30:11;99921.59;;;17.46;75.19
80294;BME280;69594;43.516;1.498;2023-05-07T01:32:44;99913.00;;;17.43;75.00
80294;BME280;69594;43.516;1.498;2023-05-07T01:35:15;99917.72;;;17.48;74.71
80294;BME280;69594;43.516;1.498;2023-05-07T01:37:42;99911.38;;;17.42;75.07
80294;BME280;69594;43.516;1.498;2023-05-07T01:40:08;99912.97;;;17.37;75.09
80294;BME280;69594;43.516;1.498;2023-05-07T01:42:35;99913.78;;;17.37;74.95
80294;BME280;69594;43.516;1.498;2023-05-07T01:45:00;99909.00;;;17.26;75.13
80294;BME280;69594;43.516;1.498;2023-05-07T01:47:26;99914.22;;;17.13;75.44
80294;BME280;69594;43.516;1.498;2023-05-07T01:49:52;99911.75;;;17.12;75.64
80294;BME280;69594;43.516;1.498;2023-05-07T01:52:17;99918.88;;;17.11;75.29
80294;BME280;69594;43.516;1.498;2023-05-07T01:54:43;99918.06;;;17.11;75.63
80294;BME280;69594;43.516;1.498;2023-05-07T01:57:08;99920.13;;;17.15;75.39
80294;BME280;69594;43.516;1.498;2023-05-07T01:59:34;99923.19;;;17.12;75.60
80294;BME280;69594;43.516;1.498;2023-05-07T02:01:59;99917.47;;;17.15;75.27
80294;BME280;69594;43.516;1.498;2023-05-07T02:04:25;99920.13;;;17.15;75.30
80294;BME280;69594;43.516;1.498;2023-05-07T02:06:51;99913.16;;;17.08;75.65
80294;BME280;69594;43.516;1.498;2023-05-07T02:09:18;99911.16;;;17.10;75.42
80294;BME280;69594;43.516;1.498;2023-05-07T02:11:44;99905.38;;;17.06;75.24
80294;BME280;69594;43.516;1.498;2023-05-07T02:14:09;99908.44;;;17.03;75.06
80294;BME280;69594;43.516;1.498;2023-05-07T02:16:35;99893.47;;;16.95;75.37
80294;BME280;69594;43.516;1.498;2023-05-07T02:19:00;99902.88;;;16.98;75.33
80294;BME280;69594;43.516;1.498;2023-05-07T02:21:26;99898.19;;;17.00;75.07
80294;BME280;69594;43.516;1.498;2023-05-07T02:23:51;99896.69;;;16.91;75.42
80294;BME280;69594;43.516;1.498;2023-05-07T02:26:18;99893.28;;;16.97;75.29
80294;BME280;69594;43.516;1.498;2023-05-07T02:28:43;99898.59;;;16.97;75.04
80294;BME280;69594;43.516;1.498;2023-05-07T02:31:09;99878.97;;;16.91;75.41
80294;BME280;69594;43.516;1.498;2023-05-07T02:33:34;99886.75;;;16.93;74.96
80294;BME280;69594;43.516;1.498;2023-05-07T02:36:10;99884.03;;;16.86;75.03
80294;BME280;69594;43.516;1.498;2023-05-07T02:38:36;99869.72;;;16.81;75.44
80294;BME280;69594;43.516;1.498;2023-05-07T02:41:01;99867.06;;;16.81;75.12
80294;BME280;69594;43.516;1.498;2023-05-07T02:43:27;99864.00;;;16.77;75.28
80294;BME280;69594;43.516;1.498;2023-05-07T02:48:27;99861.13;;;16.79;75.15
80294;BME280;69594;43.516;1.498;2023-05-07T02:50:53;99872.31;;;16.74;75.38
80294;BME280;69594;43.516;1.498;2023-05-07T02:53:18;99876.75;;;16.67;75.65
80294;BME280;69594;43.516;1.498;2023-05-07T02:55:44;99869.88;;;16.73;75.58
80294;BME280;69594;43.516;1.498;2023-05-07T02:58:09;99873.94;;;16.75;75.59
80294;BME280;69594;43.516;1.498;2023-05-07T03:00:34;99883.16;;;16.79;75.71
80294;BME280;69594;43.516;1.498;2023-05-07T03:03:00;99887.91;;;16.84;75.64
80294;BME280;69594;43.516;1.498;2023-05-07T03:05:25;99896.69;;;16.91;74.98
80294;BME280;69594;43.516;1.498;2023-05-07T03:07:51;99885.09;;;16.92;75.16
80294;BME280;69594;43.516;1.498;2023-05-07T03:10:16;99894.94;;;16.98;74.83
80294;BME280;69594;43.516;1.498;2023-05-07T03:12:42;99906.53;;;16.97;74.80
80294;BME280;69594;43.516;1.498;2023-05-07T03:15:07;99896.34;;;16.94;74.82
80294;BME280;69594;43.516;1.498;2023-05-07T03:17:33;99897.47;;;16.85;74.81
80294;BME280;69594;43.516;1.498;2023-05-07T03:19:59;99907.81;;;16.80;75.20
80294;BME280;69594;43.516;1.498;2023-05-07T03:22:24;99915.72;;;16.73;75.48
80294;BME280;69594;43.516;1.498;2023-05-07T03:24:49;99920.19;;;16.73;75.27
80294;BME280;69594;43.516;1.498;2023-05-07T03:27:15;99930.00;;;16.79;75.20
80294;BME280;69594;43.516;1.498;2023-05-07T03:29:40;99929.66;;;16.82;75.19
80294;BME280;69594;43.516;1.498;2023-05-07T03:32:06;99941.13;;;16.89;74.75
80294;BME280;69594;43.516;1.498;2023-05-07T03:34:31;99938.09;;;16.92;74.90
80294;BME280;69594;43.516;1.498;2023-05-07T03:36:57;99939.59;;;17.01;74.61
80294;BME280;69594;43.516;1.498;2023-05-07T03:39:22;99933.47;;;17.00;74.76
80294;BME280;69594;43.516;1.498;2023-05-07T03:41:48;99931.28;;;17.04;74.53
80294;BME280;69594;43.516;1.498;2023-05-07T03:44:13;99935.53;;;17.05;74.49
80294;BME280;69594;43.516;1.498;2023-05-07T03:46:38;99921.69;;;17.03;74.41
80294;BME280;69594;43.516;1.498;2023-05-07T03:49:04;99928.06;;;17.09;74.35
80294;BME280;69594;43.516;1.498;2023-05-07T03:51:30;99932.91;;;17.05;74.67
80294;BME280;69594;43.516;1.498;2023-05-07T03:53:55;99928.16;;;17.00;74.51
80294;BME280;69594;43.516;1.498;2023-05-07T03:56:22;99920.03;;;17.02;74.50
80294;BME280;69594;43.516;1.498;2023-05-07T03:58:51;99926.53;;;16.99;74.39
80294;BME280;69594;43.516;1.498;2023-05-07T04:01:17;99930.00;;;17.00;74.50
80294;BME280;69594;43.516;1.498;2023-05-07T04:03:42;99931.81;;;16.99;74.80
80294;BME280;69594;43.516;1.498;2023-05-07T04:06:08;99931.66;;;17.01;74.44
80294;BME280;69594;43.516;1.498;2023-05-07T04:08:36;99930.56;;;16.95;74.59
80294;BME280;69594;43.516;1.498;2023-05-07T04:11:01;99941.16;;;16.95;74.68
80294;BME280;69594;43.516;1.498;2023-05-07T04:13:27;99939.97;;;16.98;74.38
80294;BME280;69594;43.516;1.498;2023-05-07T04:15:54;99945.66;;;16.95;74.86
80294;BME280;69594;43.516;1.498;2023-05-07T04:18:20;99946.69;;;16.94;74.67
80294;BME280;69594;43.516;1.498;2023-05-07T04:20:47;99948.31;;;16.95;74.56
80294;BME280;69594;43.516;1.498;2023-05-07T04:23:12;99942.38;;;16.93;74.47
80294;BME280;69594;43.516;1.498;2023-05-07T04:25:37;99954.88;;;16.99;74.33
80294;BME280;69594;43.516;1.498;2023-05-07T04:28:03;99943.47;;;16.98;74.15
80294;BME280;69594;43.516;1.498;2023-05-07T04:30:28;99952.03;;;17.00;74.27
80294;BME280;69594;43.516;1.498;2023-05-07T04:32:54;99951.84;;;17.02;74.43
80294;BME280;69594;43.516;1.498;2023-05-07T04:35:19;99953.84;;;17.00;74.39
80294;BME280;69594;43.516;1.498;2023-05-07T04:37:45;99946.47;;;16.95;74.61
80294;BME280;69594;43.516;1.498;2023-05-07T04:40:10;99958.78;;;17.03;74.21
80294;BME280;69594;43.516;1.498;2023-05-07T04:42:36;99958.16;;;17.01;74.22
80294;BME280;69594;43.516;1.498;2023-05-07T04:45:02;99963.84;;;16.98;74.27
80294;BME280;69594;43.516;1.498;2023-05-07T04:47:27;99965.66;;;16.97;74.29
80294;BME280;69594;43.516;1.498;2023-05-07T04:49:53;99973.34;;;16.92;74.12
80294;BME280;69594;43.516;1.498;2023-05-07T04:52:18;99977.44;;;16.95;73.97
80294;BME280;69594;43.516;1.498;2023-05-07T04:54:43;99981.13;;;16.94;73.75
80294;BME280;69594;43.516;1.498;2023-05-07T04:57:09;99986.03;;;16.97;73.90
80294;BME280;69594;43.516;1.498;2023-05-07T04:59:34;99988.88;;;16.95;73.48
80294;BME280;69594;43.516;1.498;2023-05-07T05:02:00;99988.88;;;16.95;73.87
80294;BME280;69594;43.516;1.498;2023-05-07T05:04:26;99988.44;;;16.92;73.91
80294;BME280;69594;43.516;1.498;2023-05-07T05:06:52;99991.66;;;16.87;73.84
80294;BME280;69594;43.516;1.498;2023-05-07T05:09:17;99996.78;;;16.89;73.63
80294;BME280;69594;43.516;1.498;2023-05-07T05:11:43;99993.72;;;16.92;73.41
80294;BME280;69594;43.516;1.498;2023-05-07T05:14:08;99999.03;;;16.92;73.65
80294;BME280;69594;43.516;1.498;2023-05-07T05:16:34;100007.22;;;16.97;73.41
80294;BME280;69594;43.516;1.498;2023-05-07T05:18:59;100012.16;;;17.00;73.38
80294;BME280;69594;43.516;1.498;2023-05-07T05:21:24;100003.19;;;17.01;73.17
80294;BME280;69594;43.516;1.498;2023-05-07T05:23:50;100006.47;;;17.03;73.17
80294;BME280;69594;43.516;1.498;2023-05-07T05:26:15;99999.94;;;16.99;73.12
80294;BME280;69594;43.516;1.498;2023-05-07T05:28:41;100014.09;;;16.91;73.02
80294;BME280;69594;43.516;1.498;2023-05-07T05:31:06;100013.53;;;16.96;72.85
80294;BME280;69594;43.516;1.498;2023-05-07T05:33:32;100016.19;;;16.96;73.10
80294;BME280;69594;43.516;1.498;2023-05-07T05:35:57;100021.13;;;16.99;73.08
80294;BME280;69594;43.516;1.498;2023-05-07T05:38:22;100022.13;;;16.98;72.99
80294;BME280;69594;43.516;1.498;2023-05-07T05:40:48;100030.94;;;17.05;72.57
80294;BME280;69594;43.516;1.498;2023-05-07T05:43:14;100033.00;;;17.03;72.74
80294;BME280;69594;43.516;1.498;2023-05-07T05:45:39;100038.38;;;17.10;72.68
80294;BME280;69594;43.516;1.498;2023-05-07T05:48:05;100039.53;;;17.07;72.57
80294;BME280;69594;43.516;1.498;2023-05-07T05:50:30;100037.53;;;17.09;72.33
80294;BME280;69594;43.516;1.498;2023-05-07T05:52:56;100042.44;;;17.12;72.46
80294;BME280;69594;43.516;1.498;2023-05-07T05:55:21;100047.50;;;17.07;72.71
80294;BME280;69594;43.516;1.498;2023-05-07T05:57:47;100052.31;;;17.18;72.41
80294;BME280;69594;43.516;1.498;2023-05-07T06:00:13;100051.06;;;17.35;71.78
80294;BME280;69594;43.516;1.498;2023-05-07T06:02:39;100054.56;;;17.42;71.65
80294;BME280;69594;43.516;1.498;2023-05-07T06:05:04;100061.59;;;17.50;71.30
80294;BME280;69594;43.516;1.498;2023-05-07T06:07:30;100061.81;;;17.55;71.05
80294;BME280;69594;43.516;1.498;2023-05-07T06:09:55;100070.38;;;17.51;71.24
80294;BME280;69594;43.516;1.498;2023-05-07T06:12:21;100067.72;;;17.51;71.40
80294;BME280;69594;43.516;1.498;2023-05-07T06:14:46;100064.41;;;17.49;71.25
80294;BME280;69594;43.516;1.498;2023-05-07T06:17:12;100068.91;;;17.48;71.59
80294;BME280;69594;43.516;1.498;2023-05-07T06:19:38;100069.72;;;17.49;71.49
80294;BME280;69594;43.516;1.498;2023-05-07T06:22:03;100066.41;;;17.47;71.58
80294;BME280;69594;43.516;1.498;2023-05-07T06:24:29;100067.88;;;17.49;71.32
80294;BME280;69594;43.516;1.498;2023-05-07T06:26:54;100069.88;;;17.40;71.36
80294;BME280;69594;43.516;1.498;2023-05-07T06:29:20;100065.31;;;17.56;71.07
80294;BME280;69594;43.516;1.498;2023-05-07T06:31:45;100058.34;;;17.55;70.95
80294;BME280;69594;43.516;1.498;2023-05-07T06:34:11;100068.72;;;17.71;70.61
80294;BME280;69594;43.516;1.498;2023-05-07T06:36:40;100074.03;;;17.71;70.50
80294;BME280;69594;43.516;1.498;2023-05-07T06:39:06;100063.84;;;17.74;70.30
80294;BME280;69594;43.516;1.498;2023-05-07T06:41:31;100071.31;;;17.64;70.80
80294;BME280;69594;43.516;1.498;2023-05-07T06:43:56;100073.31;;;17.62;70.97
80294;BME280;69594;43.516;1.498;2023-05-07T06:46:22;100086.81;;;17.61;70.57
80294;BME280;69594;43.516;1.498;2023-05-07T06:48:47;100085.69;;;17.55;70.94
80294;BME280;69594;43.516;1.498;2023-05-07T06:51:13;100086.06;;;17.52;71.19
80294;BME280;69594;43.516;1.498;2023-05-07T06:53:38;100090.19;;;17.55;71.08
80294;BME280;69594;43.516;1.498;2023-05-07T06:56:04;100096.63;;;17.46;71.29
80294;BME280;69594;43.516;1.498;2023-05-07T06:58:29;100096.75;;;17.59;70.74
80294;BME280;69594;43.516;1.498;2023-05-07T07:00:55;100085.47;;;17.71;70.44
80294;BME280;69594;43.516;1.498;2023-05-07T07:03:20;100089.69;;;17.94;69.78
80294;BME280;69594;43.516;1.498;2023-05-07T07:05:46;100088.47;;;18.24;69.15
80294;BME280;69594;43.516;1.498;2023-05-07T07:08:11;100099.06;;;18.52;68.46
80294;BME280;69594;43.516;1.498;2023-05-07T07:10:36;100099.19;;;18.65;67.65
80294;BME280;69594;43.516;1.498;2023-05-07T07:13:02;100094.09;;;18.70;67.79
80294;BME280;69594;43.516;1.498;2023-05-07T07:15:27;100097.88;;;19.08;66.96
80294;BME280;69594;43.516;1.498;2023-05-07T07:17:53;100101.63;;;19.27;66.35
80294;BME280;69594;43.516;1.498;2023-05-07T07:20:18;100090.38;;;19.32;66.15
80294;BME280;69594;43.516;1.498;2023-05-07T07:22:43;100110.44;;;19.41;66.14
80294;BME280;69594;43.516;1.498;2023-05-07T07:25:09;100107.78;;;19.34;66.29
80294;BME280;69594;43.516;1.498;2023-05-07T07:27:35;100107.13;;;19.19;66.85
80294;BME280;69594;43.516;1.498;2023-05-07T07:30:00;100107.56;;;19.29;66.46
80294;BME280;69594;43.516;1.498;2023-05-07T07:32:26;100114.34;;;19.32;66.53
80294;BME280;69594;43.516;1.498;2023-05-07T07:34:51;100106.78;;;19.42;65.66
80294;BME280;69594;43.516;1.498;2023-05-07T07:37:17;100109.44;;;19.42;65.96
80294;BME280;69594;43.516;1.498;2023-05-07T07:39:42;100114.38;;;19.45;65.68
80294;BME280;69594;43.516;1.498;2023-05-07T07:42:08;100120.69;;;19.44;65.83
80294;BME280;69594;43.516;1.498;2023-05-07T07:44:33;100121.25;;;19.33;66.19
80294;BME280;69594;43.516;1.498;2023-05-07T07:46:58;100114.13;;;19.27;66.08
80294;BME280;69594;43.516;1.498;2023-05-07T07:49:24;100121.47;;;19.31;66.32
80294;BME280;69594;43.516;1.498;2023-05-07T07:51:49;100124.13;;;19.38;66.07
80294;BME280;69594;43.516;1.498;2023-05-07T07:54:16;100117.41;;;19.42;65.94
80294;BME280;69594;43.516;1.498;2023-05-07T07:56:41;100130.16;;;19.60;65.34
80294;BME280;69594;43.516;1.498;2023-05-07T07:59:07;100126.88;;;19.51;65.65
80294;BME280;69594;43.516;1.498;2023-05-07T08:01:33;100137.88;;;19.41;65.54
80294;BME280;69594;43.516;1.498;2023-05-07T08:03:59;100122.50;;;19.30;65.48
80294;BME280;69594;43.516;1.498;2023-05-07T08:06:25;100126.19;;;19.36;65.43
80294;BME280;69594;43.516;1.498;2023-05-07T08:08:53;100129.25;;;19.39;65.51
80294;BME280;69594;43.516;1.498;2023-05-07T08:11:19;100142.81;;;19.44;65.35
80294;BME280;69594;43.516;1.498;2023-05-07T08:13:45;100141.16;;;19.37;65.39
80294;BME280;69594;43.516;1.498;2023-05-07T08:16:11;100136.63;;;19.44;65.34
80294;BME280;69594;43.516;1.498;2023-05-07T08:18:36;100145.72;;;19.63;64.51
80294;BME280;69594;43.516;1.498;2023-05-07T08:21:02;100143.06;;;19.82;64.11
80294;BME280;69594;43.516;1.498;2023-05-07T08:23:27;100142.03;;;19.77;63.84
80294;BME280;69594;43.516;1.498;2023-05-07T08:25:53;100145.94;;;19.87;63.54
80294;BME280;69594;43.516;1.498;2023-05-07T08:28:18;100136.72;;;19.70;64.41
80294;BME280;69594;43.516;1.498;2023-05-07T08:30:44;100148.59;;;19.68;64.39
80294;BME280;69594;43.516;1.498;2023-05-07T08:33:10;100150.44;;;19.74;64.42
80294;BME280;69594;43.516;1.498;2023-05-07T08:35:35;100152.69;;;19.70;64.44
80294;BME280;69594;43.516;1.498;2023-05-07T08:38:01;100156.38;;;19.63;64.69
80294;BME280;69594;43.516;1.498;2023-05-07T08:40:27;100153.09;;;19.61;64.90
80294;BME280;69594;43.516;1.498;2023-05-07T08:42:53;100156.16;;;19.64;64.74
80294;BME280;69594;43.516;1.498;2023-05-07T08:45:20;100158.81;;;19.64;65.02
80294;BME280;69594;43.516;1.498;2023-05-07T08:47:54;100155.16;;;19.78;63.97
80294;BME280;69594;43.516;1.498;2023-05-07T08:50:21;100156.81;;;19.92;63.70
80294;BME280;69594;43.516;1.498;2023-05-07T08:52:47;100153.94;;;20.14;63.32
80294;BME280;69594;43.516;1.498;2023-05-07T08:55:13;100158.44;;;20.46;62.43
80294;BME280;69594;43.516;1.498;2023-05-07T08:57:38;100166.41;;;20.59;62.52
80294;BME280;69594;43.516;1.498;2023-05-07T09:00:04;100167.22;;;20.66;62.30
80294;BME280;69594;43.516;1.498;2023-05-07T09:02:34;100160.63;;;20.75;61.84
80294;BME280;69594;43.516;1.498;2023-05-07T09:04:59;100159.59;;;20.76;61.56
80294;BME280;69594;43.516;1.498;2023-05-07T09:07:25;100161.00;;;20.79;61.17
80294;BME280;69594;43.516;1.498;2023-05-07T09:09:51;100158.97;;;20.74;61.68
80294;BME280;69594;43.516;1.498;2023-05-07T09:12:18;100159.41;;;20.71;61.61
80294;BME280;69594;43.516;1.498;2023-05-07T09:14:44;100170.72;;;20.60;61.63
80294;BME280;69594;43.516;1.498;2023-05-07T09:17:09;100165.75;;;20.70;61.50
80294;BME280;69594;43.516;1.498;2023-05-07T09:19:34;100165.69;;;20.84;61.17
80294;BME280;69594;43.516;1.498;2023-05-07T09:22:02;100157.84;;;21.08;60.57
80294;BME280;69594;43.516;1.498;2023-05-07T09:24:28;100168.78;;;21.45;59.79
80294;BME280;69594;43.516;1.498;2023-05-07T09:26:57;100162.44;;;21.71;58.67
80294;BME280;69594;43.516;1.498;2023-05-07T09:29:23;100163.00;;;21.79;58.78
80294;BME280;69594;43.516;1.498;2023-05-07T09:31:48;100157.66;;;21.79;58.23
80294;BME280;69594;43.516;1.498;2023-05-07T09:34:14;100172.69;;;21.74;58.33
80294;BME280;69594;43.516;1.498;2023-05-07T09:36:39;100165.34;;;21.62;58.34
80294;BME280;69594;43.516;1.498;2023-05-07T09:39:05;100158.50;;;21.42;59.09
80294;BME280;69594;43.516;1.498;2023-05-07T09:41:30;100166.13;;;21.38;58.97
80294;BME280;69594;43.516;1.498;2023-05-07T09:44:16;100164.69;;;21.36;58.96
80294;BME280;69594;43.516;1.498;2023-05-07T09:46:43;100163.88;;;21.35;59.26
80294;BME280;69594;43.516;1.498;2023-05-07T09:49:23;100160.34;;;21.41;58.16
80294;BME280;69594;43.516;1.498;2023-05-07T09:51:50;100172.69;;;21.74;58.03
80294;BME280;69594;43.516;1.498;2023-05-07T09:54:17;100172.69;;;22.05;57.63
80294;BME280;69594;43.516;1.498;2023-05-07T09:56:44;100170.78;;;22.55;56.74
80294;BME280;69594;43.516;1.498;2023-05-07T09:59:14;100163.59;;;23.10;55.04
80294;BME280;69594;43.516;1.498;2023-05-07T10:01:42;100166.81;;;23.49;54.53
80294;BME280;69594;43.516;1.498;2023-05-07T10:04:08;100168.97;;;23.70;54.37
80294;BME280;69594;43.516;1.498;2023-05-07T10:06:34;100163.13;;;23.73;53.87
80294;BME280;69594;43.516;1.498;2023-05-07T10:09:00;100170.06;;;23.92;53.43
80294;BME280;69594;43.516;1.498;2023-05-07T10:11:26;100171.31;;;24.20;53.08
80294;BME280;69594;43.516;1.498;2023-05-07T10:13:52;100174.19;;;24.88;52.00
80294;BME280;69594;43.516;1.498;2023-05-07T10:16:19;100168.25;;;25.26;51.25
80294;BME280;69594;43.516;1.498;2023-05-07T10:18:46;100169.69;;;25.17;51.00
80294;BME280;69594;43.516;1.498;2023-05-07T10:21:20;100174.84;;;25.07;49.15
80294;BME280;69594;43.516;1.498;2023-05-07T10:23:49;100177.72;;;24.65;51.14
80294;BME280;69594;43.516;1.498;2023-05-07T10:26:17;100177.25;;;24.22;52.10
80294;BME280;69594;43.516;1.498;2023-05-07T10:28:45;100184.38;;;23.86;52.59
80294;BME280;69594;43.516;1.498;2023-05-07T10:33:37;100180.09;;;23.37;53.14
80294;BME280;69594;43.516;1.498;2023-05-07T10:36:05;100183.50;;;22.96;54.02
80294;BME280;69594;43.516;1.498;2023-05-07T10:38:31;100187.59;;;22.80;54.31
80294;BME280;69594;43.516;1.498;2023-05-07T10:40:57;100188.13;;;22.71;54.62
80294;BME280;69594;43.516;1.498;2023-05-07T10:43:23;100189.38;;;22.43;55.18
80294;BME280;69594;43.516;1.498;2023-05-07T10:46:17;100188.16;;;21.96;56.29
80294;BME280;69594;43.516;1.498;2023-05-07T10:51:36;100195.53;;;21.25;57.77
80294;BME280;69594;43.516;1.498;2023-05-07T10:56:46;100188.75;;;21.29;58.39
80294;BME280;69594;43.516;1.498;2023-05-07T11:01:56;100196.66;;;21.49;57.92
80294;BME280;69594;43.516;1.498;2023-05-07T11:04:27;100195.41;;;21.51;57.92
80294;BME280;69594;43.516;1.498;2023-05-07T11:15:11;100185.56;;;23.30;53.11
80294;BME280;69594;43.516;1.498;2023-05-07T11:17:53;100186.06;;;23.69;53.37
80294;BME280;69594;43.516;1.498;2023-05-07T11:20:19;100186.47;;;23.84;52.74
80294;BME280;69594;43.516;1.498;2023-05-07T11:22:46;100185.25;;;23.98;52.74
80294;BME280;69594;43.516;1.498;2023-05-07T11:25:17;100177.94;;;24.29;50.81
80294;BME280;69594;43.516;1.498;2023-05-07T11:27:43;100175.97;;;24.59;50.98
80294;BME280;69594;43.516;1.498;2023-05-07T11:30:09;100178.25;;;24.79;50.67
80294;BME280;69594;43.516;1.498;2023-05-07T11:32:34;100159.69;;;25.29;50.03
80294;BME280;69594;43.516;1.498;2023-05-07T11:35:00;100167.88;;;25.62;49.18
80294;BME280;69594;43.516;1.498;2023-05-07T11:37:27;100166.91;;;25.68;47.99
80294;BME280;69594;43.516;1.498;2023-05-07T11:40:08;100166.72;;;25.58;47.31
80294;BME280;69594;43.516;1.498;2023-05-07T11:42:38;100164.97;;;25.24;47.95
80294;BME280;69594;43.516;1.498;2023-05-07T11:45:05;100160.38;;;25.08;49.25
80294;BME280;69594;43.516;1.498;2023-05-07T11:47:31;100157.38;;;24.92;49.26
80294;BME280;69594;43.516;1.498;2023-05-07T11:50:02;100152.31;;;24.33;48.33
80294;BME280;69594;43.516;1.498;2023-05-07T11:52:28;100151.09;;;24.05;50.40
80294;BME280;69594;43.516;1.498;2023-05-07T11:54:56;100146.91;;;23.98;49.57
80294;BME280;69594;43.516;1.498;2023-05-07T11:57:25;100143.03;;;24.05;48.76
80294;BME280;69594;43.516;1.498;2023-05-07T11:59:58;100139.44;;;23.88;48.52
80294;BME280;69594;43.516;1.498;2023-05-07T12:02:25;100137.56;;;23.77;49.96
80294;BME280;69594;43.516;1.498;2023-05-07T12:04:51;100130.00;;;23.97;49.41
80294;BME280;69594;43.516;1.498;2023-05-07T12:07:17;100128.25;;;24.14;49.36
80294;BME280;69594;43.516;1.498;2023-05-07T12:09:44;100132.81;;;24.61;48.82
80294;BME280;69594;43.516;1.498;2023-05-07T12:12:10;100116.63;;;25.24;48.07
80294;BME280;69594;43.516;1.498;2023-05-07T12:14:40;100114.88;;;25.29;45.03
80294;BME280;69594;43.516;1.498;2023-05-07T12:17:10;100122.69;;;25.31;47.01
80294;BME280;69594;43.516;1.498;2023-05-07T12:19:37;100115.94;;;25.00;47.54
80294;BME280;69594;43.516;1.498;2023-05-07T12:22:03;100116.56;;;24.67;47.97
80294;BME280;69594;43.516;1.498;2023-05-07T12:24:29;100115.50;;;24.80;47.75
80294;BME280;69594;43.516;1.498;2023-05-07T12:26:54;100112.91;;;24.96;47.64
80294;BME280;69594;43.516;1.498;2023-05-07T12:29:23;100115.25;;;24.93;46.59
80294;BME280;69594;43.516;1.498;2023-05-07T12:31:49;100115.41;;;24.75;47.67
80294;BME280;69594;43.516;1.498;2023-05-07T12:34:15;100118.00;;;24.58;47.94
80294;BME280;69594;43.516;1.498;2023-05-07T12:36:41;100120.75;;;24.75;47.78
80294;BME280;69594;43.516;1.498;2023-05-07T12:39:07;100114.22;;;25.39;46.61
80294;BME280;69594;43.516;1.498;2023-05-07T12:41:56;100113.75;;;25.42;45.44
80294;BME280;69594;43.516;1.498;2023-05-07T12:44:24;100117.41;;;25.64;45.84
80294;BME280;69594;43.516;1.498;2023-05-07T12:46:51;100106.81;;;25.74;45.82
80294;BME280;69594;43.516;1.498;2023-05-07T12:49:16;100119.13;;;25.42;46.10
80294;BME280;69594;43.516;1.498;2023-05-07T12:51:43;100117.03;;;25.16;46.20
80294;BME280;69594;43.516;1.498;2023-05-07T12:54:09;100121.47;;;24.70;46.92
80294;BME280;69594;43.516;1.498;2023-05-07T12:56:37;100121.28;;;24.13;47.00
80294;BME280;69594;43.516;1.498;2023-05-07T12:59:03;100112.56;;;24.30;47.59
80294;BME280;69594;43.516;1.498;2023-05-07T13:01:29;100107.78;;;24.32;47.71
80294;BME280;69594;43.516;1.498;2023-05-07T13:03:57;100115.50;;;24.80;46.85
80294;BME280;69594;43.516;1.498;2023-05-07T13:06:25;100109.56;;;25.18;45.95
80294;BME280;69594;43.516;1.498;2023-05-07T13:08:51;100113.44;;;25.38;45.75
80294;BME280;69594;43.516;1.498;2023-05-07T13:11:16;100109.59;;;25.63;45.30